Time;durP1;ratioP1;P1;durP2;ratioP2;P2;SDS_P1;SDS_P2;PMS_P1;PMS_P2;Temp;Humidity;BMP_temperature;BMP_pressure;BME280_temperature;BME280_humidity;BME280_pressure;Samples;Min_cycle;Max_cycle;Signal;HPM_P1;HPM_P2
2022/01/31 00:00:14;;;;;;;3.42;1.02;;;7.80;99.90;;;;;;5010126;28;20045;-58
2022/01/31 00:02:42;;;;;;;4.22;1.17;;;7.90;99.90;;;;;;5040495;28;20061;-58
2022/01/31 00:05:09;;;;;;;5.53;1.30;;;7.90;99.90;;;;;;5039267;28;20056;-58
2022/01/31 00:07:36;;;;;;;8.98;1.58;;;7.80;99.90;;;;;;5041747;28;20050;-58
2022/01/31 00:10:07;;;;;;;4.85;1.52;;;7.80;99.90;;;;;;5041196;28;20102;-59
2022/01/31 00:12:45;;;;;;;8.55;1.60;;;7.80;99.90;;;;;;5038199;28;20040;-58
2022/01/31 00:15:12;;;;;;;6.90;1.50;;;7.80;99.90;;;;;;5044649;28;20076;-58
2022/01/31 00:17:38;;;;;;;6.28;1.52;;;7.80;99.90;;;;;;5039480;28;20076;-58
2022/01/31 00:20:05;;;;;;;11.82;3.72;;;7.80;99.90;;;;;;5037443;28;20195;-56
2022/01/31 00:22:32;;;;;;;6.88;1.38;;;7.80;99.90;;;;;;5027170;28;20106;-58
2022/01/31 00:24:59;;;;;;;6.57;1.63;;;7.70;99.90;;;;;;5038599;28;20265;-58
2022/01/31 00:27:26;;;;;;;4.00;1.58;;;7.70;99.90;;;;;;5040007;28;20080;-57
2022/01/31 00:29:53;;;;;;;5.80;1.15;;;7.70;99.90;;;;;;5036711;28;20056;-58
2022/01/31 00:32:19;;;;;;;3.70;1.30;;;7.80;99.90;;;;;;5038896;28;20084;-57
2022/01/31 00:34:46;;;;;;;2.08;0.90;;;7.80;99.90;;;;;;5038263;28;20445;-57
2022/01/31 00:37:13;;;;;;;6.28;1.20;;;7.80;99.90;;;;;;5039687;28;20087;-56
2022/01/31 00:39:40;;;;;;;5.40;1.52;;;7.90;99.90;;;;;;5039445;28;20095;-57
2022/01/31 00:42:07;;;;;;;10.35;1.38;;;7.90;99.90;;;;;;5040647;28;20493;-58
2022/01/31 00:47:31;;;;;;;5.15;1.40;;;8.00;99.90;;;;;;5008397;28;20076;-57
2022/01/31 00:52:31;;;;;;;5.57;1.73;;;8.00;99.90;;;;;;5046163;28;20053;-57
2022/01/31 00:54:58;;;;;;;5.80;1.00;;;8.00;99.90;;;;;;5045495;28;20132;-60
2022/01/31 00:57:25;;;;;;;4.55;1.10;;;8.10;99.90;;;;;;5039316;28;20148;-58
2022/01/31 00:59:53;;;;;;;3.33;1.10;;;8.10;99.60;;;;;;5036963;28;20053;-58
2022/01/31 01:02:21;;;;;;;5.95;0.80;;;8.00;99.00;;;;;;5042939;28;20057;-58
2022/01/31 01:04:48;;;;;;;6.50;1.02;;;8.00;98.90;;;;;;5046683;28;20128;-57
2022/01/31 01:07:15;;;;;;;3.25;0.90;;;7.90;98.80;;;;;;5042188;28;20107;-57
2022/01/31 01:09:44;;;;;;;2.40;1.60;;;7.90;98.70;;;;;;5022682;28;20048;-57
2022/01/31 01:12:11;;;;;;;9.73;1.40;;;7.90;98.80;;;;;;5036181;28;20045;-56
2022/01/31 01:14:38;;;;;;;1.80;0.77;;;7.80;98.50;;;;;;5039359;28;20072;-57
2022/01/31 01:17:05;;;;;;;1.88;0.70;;;7.80;97.80;;;;;;5035611;28;20087;-57
2022/01/31 01:19:31;;;;;;;5.90;0.68;;;7.80;97.60;;;;;;5037989;28;20094;-57
2022/01/31 01:21:58;;;;;;;4.80;1.05;;;7.90;97.10;;;;;;5037216;28;20095;-58
2022/01/31 01:24:25;;;;;;;13.15;1.90;;;7.90;96.20;;;;;;5025852;28;20072;-56
2022/01/31 01:26:53;;;;;;;2.50;0.95;;;7.90;95.70;;;;;;5042239;28;20137;-58
2022/01/31 01:29:20;;;;;;;5.82;1.13;;;8.00;94.10;;;;;;5037972;28;20407;-57
2022/01/31 01:31:48;;;;;;;4.68;0.70;;;8.00;94.50;;;;;;5038477;28;20042;-57
2022/01/31 01:34:16;;;;;;;3.53;0.90;;;7.90;94.60;;;;;;5038231;28;20079;-57
2022/01/31 01:36:45;;;;;;;3.10;0.95;;;7.90;93.10;;;;;;5045078;28;20151;-57
2022/01/31 01:39:12;;;;;;;5.25;1.00;;;7.90;93.80;;;;;;5035659;28;20076;-56
2022/01/31 01:41:39;;;;;;;5.03;0.95;;;7.90;94.10;;;;;;5043472;28;20048;-56
2022/01/31 01:44:06;;;;;;;2.90;1.23;;;7.80;94.50;;;;;;5016508;28;20639;-57
2022/01/31 01:46:32;;;;;;;9.20;1.27;;;7.70;93.30;;;;;;5039753;28;20136;-57
2022/01/31 01:48:59;;;;;;;5.18;0.98;;;7.70;93.60;;;;;;5031514;28;20054;-56
2022/01/31 01:51:26;;;;;;;3.47;0.90;;;7.70;93.20;;;;;;5018519;28;20289;-57
2022/01/31 01:53:53;;;;;;;3.70;0.88;;;7.70;93.30;;;;;;5021768;28;20096;-56
2022/01/31 01:56:20;;;;;;;5.57;2.13;;;7.60;93.10;;;;;;5034232;28;20069;-56
2022/01/31 01:58:48;;;;;;;3.38;1.15;;;7.60;94.10;;;;;;5039255;28;20049;-59
2022/01/31 02:01:15;;;;;;;9.15;1.17;;;7.60;92.50;;;;;;5027712;28;20076;-56
2022/01/31 02:03:42;;;;;;;3.58;0.93;;;7.50;93.00;;;;;;5021688;28;20131;-57
2022/01/31 02:06:09;;;;;;;3.95;1.35;;;7.50;92.80;;;;;;5043729;28;20056;-57
2022/01/31 02:08:40;;;;;;;6.95;1.65;;;7.60;93.00;;;;;;5036733;28;20415;-56
2022/01/31 02:11:08;;;;;;;8.45;2.17;;;7.60;93.20;;;;;;5037180;28;20033;-57
2022/01/31 02:13:36;;;;;;;5.38;1.23;;;7.60;93.10;;;;;;5037015;28;20383;-57
2022/01/31 02:16:03;;;;;;;4.40;1.20;;;7.50;92.70;;;;;;5032282;28;20088;-56
2022/01/31 02:18:31;;;;;;;9.15;1.13;;;7.50;92.90;;;;;;5037840;28;20523;-59
2022/01/31 02:20:58;;;;;;;8.38;1.60;;;7.50;92.90;;;;;;5037729;28;20079;-55
2022/01/31 02:23:26;;;;;;;4.88;1.10;;;7.50;92.90;;;;;;5037836;28;20408;-58
2022/01/31 02:25:57;;;;;;;5.70;1.10;;;7.40;93.50;;;;;;5033782;28;20050;-57
2022/01/31 02:28:26;;;;;;;7.95;2.03;;;7.40;93.80;;;;;;5037618;28;20056;-57
2022/01/31 02:30:53;;;;;;;5.07;1.15;;;7.30;94.30;;;;;;5039860;28;20170;-58
2022/01/31 02:33:20;;;;;;;4.80;1.20;;;7.30;94.80;;;;;;5037117;28;20087;-58
2022/01/31 02:35:48;;;;;;;5.88;1.02;;;7.20;94.90;;;;;;5037165;28;20073;-57
2022/01/31 02:38:14;;;;;;;4.45;1.27;;;7.20;94.90;;;;;;5035654;28;20053;-57
2022/01/31 02:40:41;;;;;;;10.15;2.10;;;7.20;94.80;;;;;;5033492;28;20073;-58
2022/01/31 02:43:08;;;;;;;8.73;2.15;;;7.10;95.10;;;;;;5045878;28;20052;-56
2022/01/31 02:45:35;;;;;;;9.30;1.35;;;7.10;94.90;;;;;;5039533;28;20087;-57
2022/01/31 02:48:03;;;;;;;6.28;1.42;;;7.10;95.10;;;;;;5040391;28;20051;-57
2022/01/31 02:50:30;;;;;;;6.45;1.33;;;7.00;95.30;;;;;;5034033;28;20496;-55
2022/01/31 02:53:11;;;;;;;22.23;1.42;;;7.00;95.40;;;;;;5039232;28;20128;-53
2022/01/31 02:55:43;;;;;;;5.30;1.67;;;6.90;95.40;;;;;;5034151;28;20608;-57
2022/01/31 02:58:10;;;;;;;6.85;1.13;;;6.90;95.50;;;;;;5040702;28;20057;-57
2022/01/31 03:00:37;;;;;;;9.15;2.22;;;6.80;95.40;;;;;;5035997;28;20065;-57
2022/01/31 03:03:04;;;;;;;9.75;1.77;;;6.80;95.60;;;;;;5039577;28;20135;-58
2022/01/31 03:05:31;;;;;;;7.38;0.98;;;6.80;95.60;;;;;;5041813;28;20080;-58
2022/01/31 03:07:58;;;;;;;10.68;2.13;;;6.80;94.80;;;;;;5043902;28;20076;-60
2022/01/31 03:10:25;;;;;;;4.18;1.58;;;6.90;94.10;;;;;;5022990;28;20095;-58
2022/01/31 03:12:51;;;;;;;14.32;1.48;;;6.90;93.70;;;;;;5047639;28;20457;-57
2022/01/31 03:15:18;;;;;;;3.50;0.80;;;6.80;94.50;;;;;;5049035;28;20045;-56
2022/01/31 03:17:50;;;;;;;4.95;1.15;;;6.70;95.60;;;;;;5037229;28;20096;-58
2022/01/31 03:20:22;;;;;;;7.35;1.25;;;6.60;96.70;;;;;;5041535;28;20076;-57
2022/01/31 03:22:49;;;;;;;6.13;1.27;;;6.30;97.40;;;;;;5036852;28;20085;-58
2022/01/31 03:25:15;;;;;;;6.05;1.15;;;6.30;97.50;;;;;;5044449;28;20100;-58
2022/01/31 03:27:44;;;;;;;7.60;1.73;;;6.30;97.70;;;;;;5035809;28;20049;-57
2022/01/31 03:30:13;;;;;;;5.63;1.38;;;6.20;98.00;;;;;;5041329;28;20125;-57
2022/01/31 03:32:40;;;;;;;7.30;1.42;;;6.20;97.90;;;;;;5034016;28;20045;-57
2022/01/31 03:35:07;;;;;;;8.98;1.00;;;6.20;97.50;;;;;;5043066;28;20084;-58
2022/01/31 03:37:35;;;;;;;5.35;1.25;;;6.30;97.20;;;;;;5037077;28;20060;-57
2022/01/31 03:40:03;;;;;;;5.32;1.23;;;6.30;96.50;;;;;;5048132;28;20046;-54
2022/01/31 03:42:30;;;;;;;7.30;1.20;;;6.30;96.90;;;;;;5043278;28;20146;-57
2022/01/31 03:44:57;;;;;;;13.43;2.63;;;6.40;96.60;;;;;;5017526;28;20081;-57
2022/01/31 03:47:23;;;;;;;4.65;1.02;;;6.40;96.00;;;;;;5037825;28;20103;-58
2022/01/31 03:49:51;;;;;;;7.70;1.65;;;6.40;95.30;;;;;;5034155;28;20045;-59
2022/01/31 03:52:17;;;;;;;8.10;1.55;;;6.50;94.90;;;;;;5047533;28;20057;-58
2022/01/31 03:54:45;;;;;;;6.00;1.17;;;6.60;95.00;;;;;;5038005;28;20484;-58
2022/01/31 03:57:11;;;;;;;7.00;1.30;;;6.60;94.80;;;;;;5040300;28;20083;-58
2022/01/31 03:59:38;;;;;;;10.95;1.83;;;6.60;95.00;;;;;;5038154;28;20087;-56
2022/01/31 04:02:06;;;;;;;6.97;1.45;;;6.70;95.40;;;;;;5030607;28;20496;-55
2022/01/31 04:04:34;;;;;;;6.70;1.30;;;6.70;95.30;;;;;;5035397;28;20096;-56
2022/01/31 04:07:01;;;;;;;12.50;1.27;;;6.60;95.80;;;;;;5036567;28;20564;-55
2022/01/31 04:09:28;;;;;;;7.85;1.08;;;6.60;95.70;;;;;;5043291;28;20084;-56
2022/01/31 04:11:55;;;;;;;5.65;1.30;;;6.50;95.70;;;;;;5042759;28;20041;-57
2022/01/31 04:14:26;;;;;;;8.68;1.75;;;6.50;95.80;;;;;;5042073;28;20144;-57
2022/01/31 04:16:54;;;;;;;8.80;1.95;;;6.50;95.70;;;;;;5018913;28;20084;-57
2022/01/31 04:19:22;;;;;;;9.40;1.35;;;6.60;95.60;;;;;;5034017;28;20326;-59
2022/01/31 04:21:49;;;;;;;12.57;2.33;;;6.60;95.10;;;;;;5039823;28;20107;-56
2022/01/31 04:24:22;;;;;;;5.57;1.40;;;6.60;95.40;;;;;;5044696;28;20106;-55
2022/01/31 04:26:58;;;;;;;5.20;1.38;;;6.60;95.20;;;;;;5021792;28;20080;-57
2022/01/31 04:29:28;;;;;;;5.05;1.30;;;6.70;93.90;;;;;;5046150;28;20111;-57
2022/01/31 04:31:55;;;;;;;9.73;1.27;;;6.80;94.30;;;;;;5020845;28;20091;-58
2022/01/31 04:34:22;;;;;;;4.90;1.13;;;6.80;93.90;;;;;;5047152;28;20087;-57
2022/01/31 04:36:49;;;;;;;6.93;2.15;;;6.90;92.90;;;;;;5040006;28;20130;-56
2022/01/31 04:39:18;;;;;;;2.17;0.88;;;6.80;92.40;;;;;;5018450;28;20041;-58
2022/01/31 04:41:46;;;;;;;7.75;1.67;;;6.90;91.60;;;;;;5044960;28;20228;-58
2022/01/31 04:44:13;;;;;;;4.85;1.00;;;6.90;91.70;;;;;;5041061;28;20067;-56
2022/01/31 04:46:40;;;;;;;7.88;1.45;;;7.00;91.80;;;;;;5041560;28;20076;-56
2022/01/31 04:49:07;;;;;;;11.32;1.90;;;7.00;91.80;;;;;;5033906;28;20135;-58
2022/01/31 04:51:34;;;;;;;9.38;1.20;;;7.00;91.60;;;;;;5039008;28;20145;-57
2022/01/31 04:54:01;;;;;;;11.40;2.25;;;7.00;91.80;;;;;;5037198;28;20108;-56
2022/01/31 04:56:28;;;;;;;7.70;2.00;;;7.00;91.90;;;;;;5036490;28;20041;-56
2022/01/31 04:58:55;;;;;;;6.40;1.23;;;7.10;91.50;;;;;;5047078;28;20547;-57
2022/01/31 05:01:23;;;;;;;8.32;2.33;;;7.00;91.60;;;;;;5016550;28;20505;-59
2022/01/31 05:03:50;;;;;;;5.97;1.15;;;7.00;91.60;;;;;;5018625;28;20057;-57
2022/01/31 05:06:21;;;;;;;9.00;1.20;;;7.00;92.40;;;;;;5037686;28;20041;-57
2022/01/31 05:08:48;;;;;;;8.27;1.70;;;7.00;91.90;;;;;;5037614;28;20053;-57
2022/01/31 05:11:16;;;;;;;11.05;2.75;;;7.00;91.50;;;;;;5031289;28;20101;-56
2022/01/31 05:13:46;;;;;;;5.70;1.63;;;7.00;90.90;;;;;;5036002;28;20090;-56
2022/01/31 05:16:13;;;;;;;6.03;1.40;;;7.10;91.50;;;;;;5018829;28;20053;-56
2022/01/31 05:18:39;;;;;;;4.15;1.70;;;7.10;90.30;;;;;;5045203;28;20078;-56
2022/01/31 05:21:08;;;;;;;6.78;1.48;;;7.30;90.40;;;;;;5042948;28;20084;-56
2022/01/31 05:23:35;;;;;;;6.05;1.27;;;7.30;89.50;;;;;;5021965;28;20088;-58
2022/01/31 05:26:02;;;;;;;8.15;1.83;;;7.30;89.20;;;;;;5036525;28;20084;-57
2022/01/31 05:28:29;;;;;;;2.28;0.88;;;7.30;90.40;;;;;;5043325;28;20084;-57
2022/01/31 05:30:56;;;;;;;4.40;1.30;;;7.10;91.50;;;;;;5031592;28;20076;-57
2022/01/31 05:33:22;;;;;;;5.93;1.42;;;6.80;94.20;;;;;;5038641;28;20119;-57
2022/01/31 05:35:49;;;;;;;6.53;1.42;;;6.50;94.50;;;;;;5030890;28;20081;-56
2022/01/31 05:38:17;;;;;;;8.10;1.02;;;6.50;94.70;;;;;;5042177;28;20045;-54
2022/01/31 05:40:43;;;;;;;1.67;0.90;;;6.40;94.80;;;;;;5045243;28;20045;-57
2022/01/31 05:43:10;;;;;;;6.10;1.08;;;6.40;94.70;;;;;;5041427;28;20091;-57
2022/01/31 05:45:37;;;;;;;7.85;1.58;;;6.40;94.70;;;;;;5021468;28;20095;-57
2022/01/31 05:48:04;;;;;;;12.13;1.90;;;6.40;94.60;;;;;;5041177;28;20140;-56
2022/01/31 05:50:31;;;;;;;11.07;1.60;;;6.40;94.10;;;;;;5032238;28;20049;-57
2022/01/31 05:52:58;;;;;;;8.77;1.75;;;6.40;93.80;;;;;;5038653;28;20136;-57
2022/01/31 05:55:25;;;;;;;4.60;1.35;;;6.40;93.40;;;;;;5020591;28;20559;-57
2022/01/31 05:57:51;;;;;;;6.78;1.15;;;6.40;93.40;;;;;;5041849;28;20202;-58
2022/01/31 06:00:21;;;;;;;6.13;1.60;;;6.40;93.10;;;;;;5028091;28;20041;-57
2022/01/31 06:02:49;;;;;;;8.30;1.40;;;6.40;92.70;;;;;;5024155;28;20560;-58
2022/01/31 06:05:15;;;;;;;3.63;0.95;;;6.40;93.10;;;;;;5002406;28;20087;-57
2022/01/31 06:07:42;;;;;;;4.60;1.40;;;6.40;92.20;;;;;;5037576;28;20148;-56
2022/01/31 06:10:09;;;;;;;11.45;1.58;;;6.40;92.40;;;;;;5035000;28;20132;-57
2022/01/31 06:12:40;;;;;;;6.40;1.48;;;6.40;92.10;;;;;;5033494;28;20071;-58
2022/01/31 06:15:08;;;;;;;7.25;1.15;;;6.40;92.20;;;;;;5045744;28;20049;-58
2022/01/31 06:17:34;;;;;;;10.40;1.15;;;6.40;91.70;;;;;;5042882;28;20072;-57
2022/01/31 06:20:02;;;;;;;6.18;1.38;;;6.50;90.70;;;;;;5045747;28;20166;-58
2022/01/31 06:22:29;;;;;;;7.10;1.52;;;6.50;89.30;;;;;;5041383;28;20468;-57
2022/01/31 06:24:56;;;;;;;16.08;2.63;;;6.50;88.70;;;;;;5036821;28;20125;-56
2022/01/31 06:27:22;;;;;;;15.65;5.32;;;6.50;89.70;;;;;;5032110;28;20049;-56
2022/01/31 06:29:49;;;;;;;5.78;1.80;;;6.50;90.00;;;;;;5042000;28;20756;-58
2022/01/31 06:32:18;;;;;;;7.53;1.63;;;6.40;89.40;;;;;;5041321;28;20142;-53
2022/01/31 06:34:45;;;;;;;14.85;2.30;;;6.50;89.30;;;;;;5035118;28;20048;-53
2022/01/31 06:37:12;;;;;;;9.50;2.38;;;6.40;89.80;;;;;;5039308;28;20041;-57
2022/01/31 06:39:38;;;;;;;13.40;1.75;;;6.30;89.90;;;;;;5036027;28;20049;-57
2022/01/31 06:42:05;;;;;;;13.20;1.83;;;6.40;88.90;;;;;;5039709;28;20080;-56
2022/01/31 06:44:32;;;;;;;11.90;2.58;;;6.40;89.00;;;;;;5038131;28;20049;-58
2022/01/31 06:46:59;;;;;;;16.85;5.18;;;6.40;90.20;;;;;;5037590;28;20046;-58
2022/01/31 06:49:26;;;;;;;13.73;2.05;;;6.30;89.80;;;;;;5032987;28;20048;-56
2022/01/31 06:51:53;;;;;;;20.45;3.42;;;6.30;89.70;;;;;;5035031;28;20084;-57
2022/01/31 06:54:20;;;;;;;15.43;3.08;;;6.30;90.10;;;;;;5035845;28;20103;-54
2022/01/31 06:56:46;;;;;;;11.20;2.35;;;6.30;90.10;;;;;;5041354;28;20649;-56
2022/01/31 06:59:13;;;;;;;16.60;2.70;;;6.30;90.40;;;;;;5030396;28;20056;-55
2022/01/31 07:01:40;;;;;;;18.00;2.30;;;6.40;90.60;;;;;;5038796;28;20167;-57
2022/01/31 07:04:07;;;;;;;15.13;2.13;;;6.40;89.60;;;;;;5035080;28;20049;-57
2022/01/31 07:06:34;;;;;;;13.63;2.22;;;6.40;90.20;;;;;;5042336;28;20045;-62
2022/01/31 07:09:01;;;;;;;9.68;1.88;;;6.40;90.00;;;;;;5029370;28;20057;-59
2022/01/31 07:11:33;;;;;;;13.73;3.13;;;6.30;90.00;;;;;;5036175;28;20041;-57
2022/01/31 07:14:03;;;;;;;9.00;2.75;;;6.30;90.20;;;;;;5028706;28;20130;-57
2022/01/31 07:16:30;;;;;;;9.93;1.60;;;6.40;89.80;;;;;;5034549;28;20399;-60
2022/01/31 07:19:03;;;;;;;15.32;4.10;;;6.40;90.00;;;;;;5042492;28;20053;-57
2022/01/31 07:21:47;;;;;;;16.50;3.63;;;6.40;90.30;;;;;;5042028;28;20365;-57
2022/01/31 07:24:21;;;;;;;8.70;1.52;;;6.30;90.60;;;;;;5017092;28;20081;-56
2022/01/31 07:26:48;;;;;;;10.40;1.63;;;6.30;90.60;;;;;;5037145;28;20080;-56
2022/01/31 07:29:16;;;;;;;15.05;2.00;;;6.20;91.10;;;;;;5042113;28;20119;-56
2022/01/31 07:31:45;;;;;;;12.00;2.10;;;6.20;91.00;;;;;;5037463;28;20069;-58
2022/01/31 07:34:14;;;;;;;13.52;3.65;;;6.20;91.10;;;;;;5015311;28;20053;-56
2022/01/31 07:36:42;;;;;;;17.02;2.97;;;6.20;91.30;;;;;;5036358;28;20052;-55
2022/01/31 07:39:08;;;;;;;11.85;2.42;;;6.20;91.70;;;;;;5033736;28;20061;-58
2022/01/31 07:41:39;;;;;;;10.55;2.25;;;6.10;91.50;;;;;;5037432;28;20493;-59
2022/01/31 07:44:06;;;;;;;12.45;3.78;;;6.10;91.70;;;;;;5043924;28;20115;-58
2022/01/31 07:46:33;;;;;;;19.67;3.47;;;6.10;91.60;;;;;;5017228;28;20041;-58
2022/01/31 07:49:01;;;;;;;15.00;2.30;;;6.10;91.80;;;;;;5044435;28;20053;-58
2022/01/31 07:51:27;;;;;;;35.53;3.10;;;6.10;91.50;;;;;;5043468;28;20044;-57
2022/01/31 07:53:54;;;;;;;12.50;2.70;;;6.00;91.60;;;;;;5021487;28;20119;-57
2022/01/31 07:56:21;;;;;;;17.95;2.75;;;6.00;91.90;;;;;;5038381;28;20069;-59
2022/01/31 07:58:48;;;;;;;13.98;2.20;;;6.00;92.10;;;;;;5044884;28;20060;-59
2022/01/31 08:01:15;;;;;;;11.35;2.03;;;5.90;92.30;;;;;;5047743;28;20044;-59
2022/01/31 08:03:45;;;;;;;5.50;1.58;;;5.90;92.60;;;;;;5048140;28;20079;-57
2022/01/31 08:06:12;;;;;;;15.43;2.97;;;5.80;92.80;;;;;;5035453;28;20048;-58
2022/01/31 08:08:39;;;;;;;15.65;2.88;;;5.80;93.10;;;;;;5025617;28;20073;-57
2022/01/31 08:11:06;;;;;;;9.25;1.88;;;5.80;93.20;;;;;;5032476;28;20044;-58
2022/01/31 08:13:33;;;;;;;9.65;1.75;;;5.80;93.30;;;;;;5038970;28;20093;-58
2022/01/31 08:16:03;;;;;;;7.13;1.73;;;5.80;93.30;;;;;;5035148;28;20084;-56
2022/01/31 08:18:30;;;;;;;4.53;1.00;;;5.80;93.70;;;;;;5029078;28;20116;-57
2022/01/31 08:20:57;;;;;;;12.88;2.05;;;5.80;93.70;;;;;;5035715;28;20057;-60
2022/01/31 08:23:23;;;;;;;15.02;1.75;;;5.70;94.00;;;;;;5036903;28;20529;-57
2022/01/31 08:25:51;;;;;;;10.68;2.22;;;5.70;94.10;;;;;;5019180;28;20073;-58
2022/01/31 08:28:19;;;;;;;5.50;1.40;;;5.70;93.50;;;;;;5044581;28;20118;-58
2022/01/31 08:30:56;;;;;;;3.22;1.40;;;5.70;93.40;;;;;;5045352;28;20115;-57
2022/01/31 08:36:12;;;;;;;5.78;1.35;;;5.80;93.60;;;;;;5017436;28;20049;-60
2022/01/31 08:38:40;;;;;;;8.85;2.13;;;5.70;93.20;;;;;;5034096;28;20045;-58
2022/01/31 08:41:07;;;;;;;6.47;1.75;;;5.80;93.40;;;;;;5043965;28;20478;-58
2022/01/31 08:43:35;;;;;;;10.93;1.95;;;5.80;93.10;;;;;;5038999;28;20119;-59
2022/01/31 08:46:02;;;;;;;11.32;2.20;;;5.80;92.30;;;;;;5035889;28;20088;-58
2022/01/31 08:48:30;;;;;;;15.13;1.83;;;5.80;92.10;;;;;;5017463;28;20132;-58
2022/01/31 08:50:57;;;;;;;12.10;1.80;;;5.90;91.40;;;;;;5042763;28;20730;-59
2022/01/31 08:53:24;;;;;;;31.10;5.13;;;5.90;91.40;;;;;;5026925;28;20578;-58
2022/01/31 08:55:53;;;;;;;17.20;2.20;;;6.00;90.30;;;;;;5024924;28;20081;-56
2022/01/31 08:58:23;;;;;;;12.40;2.05;;;6.10;90.30;;;;;;5031740;28;20045;-60
2022/01/31 09:00:58;;;;;;;20.80;2.45;;;6.10;90.50;;;;;;5041595;28;20122;-57
2022/01/31 09:06:02;;;;;;;17.98;2.42;;;6.20;87.00;;;;;;5039219;28;20053;-56
2022/01/31 09:08:29;;;;;;;19.95;3.85;;;6.30;89.70;;;;;;5031649;28;20140;-57
2022/01/31 09:10:56;;;;;;;11.20;1.70;;;6.30;88.50;;;;;;5038891;28;20092;-58
2022/01/31 09:13:24;;;;;;;8.98;2.30;;;6.30;86.80;;;;;;5035261;28;20073;-58
2022/01/31 09:15:51;;;;;;;6.00;1.42;;;6.40;87.90;;;;;;5041634;28;20114;-57
2022/01/31 09:18:18;;;;;;;8.57;2.25;;;6.60;82.70;;;;;;5040422;28;20560;-59
2022/01/31 09:20:45;;;;;;;19.13;2.33;;;6.70;84.70;;;;;;5038920;28;20089;-56
2022/01/31 09:23:12;;;;;;;20.10;2.67;;;6.60;83.40;;;;;;5041657;28;20065;-57
2022/01/31 09:25:44;;;;;;;13.60;4.30;;;6.60;86.80;;;;;;5032795;28;20095;-58
2022/01/31 09:28:13;;;;;;;15.85;2.47;;;6.60;85.20;;;;;;5024040;28;20416;-56
2022/01/31 09:30:40;;;;;;;12.68;1.70;;;6.60;84.60;;;;;;5035882;28;20541;-56
2022/01/31 09:33:07;;;;;;;18.13;2.53;;;6.60;84.70;;;;;;5036868;28;20508;-58
2022/01/31 09:35:34;;;;;;;14.02;2.13;;;6.70;82.10;;;;;;5013698;28;20053;-58
2022/01/31 09:38:02;;;;;;;18.65;2.38;;;6.70;80.50;;;;;;5042267;28;20127;-59
2022/01/31 09:40:32;;;;;;;14.52;2.33;;;6.70;82.50;;;;;;5039455;28;20087;-59
2022/01/31 09:48:41;;;;;;;36.63;3.92;;;6.80;81.10;;;;;;5033288;28;20045;-58
2022/01/31 09:51:15;;;;;;;15.07;1.65;;;6.80;76.20;;;;;;5038014;28;20118;-61
2022/01/31 09:53:50;;;;;;;9.85;2.10;;;6.80;75.10;;;;;;5034916;28;20072;-56
2022/01/31 09:56:21;;;;;;;15.00;2.70;;;6.90;72.80;;;;;;5028239;28;20103;-56
2022/01/31 09:58:49;;;;;;;8.88;2.50;;;6.90;75.40;;;;;;5013844;28;20559;-57
2022/01/31 10:01:21;;;;;;;8.93;2.13;;;7.00;77.80;;;;;;5035615;28;20110;-57
2022/01/31 10:03:51;;;;;;;10.40;2.60;;;7.00;75.50;;;;;;5029917;28;20052;-55
2022/01/31 10:06:22;;;;;;;11.80;1.80;;;7.00;75.00;;;;;;5036450;28;20123;-57
2022/01/31 10:09:17;;;;;;;18.02;2.83;;;7.10;76.90;;;;;;5031634;28;20132;-59
2022/01/31 10:11:53;;;;;;;10.10;2.00;;;7.10;74.20;;;;;;5007366;28;20529;-58
2022/01/31 10:17:48;;;;;;;11.30;2.35;;;7.10;72.10;;;;;;5030984;28;20052;-57
2022/01/31 10:20:18;;;;;;;20.40;2.70;;;7.10;73.00;;;;;;4973684;28;20058;-57
2022/01/31 10:22:46;;;;;;;20.77;3.63;;;7.20;77.10;;;;;;5030078;28;20519;-57
2022/01/31 10:25:14;;;;;;;11.35;1.98;;;7.30;74.50;;;;;;5014146;28;20250;-57
2022/01/31 10:28:01;;;;;;;14.02;1.90;;;7.20;75.00;;;;;;5041377;28;20049;-58
2022/01/31 10:30:29;;;;;;;9.30;2.10;;;7.30;74.40;;;;;;5022300;28;20049;-57
2022/01/31 10:32:57;;;;;;;15.15;1.88;;;7.30;70.70;;;;;;5040970;28;20094;-56
2022/01/31 10:35:25;;;;;;;18.02;2.53;;;7.30;71.60;;;;;;5040329;28;20079;-56
2022/01/31 10:38:08;;;;;;;21.10;2.33;;;7.40;72.70;;;;;;5032914;28;20139;-58
2022/01/31 10:54:28;;;;;;;7.18;1.23;;;7.50;68.60;;;;;;5002485;28;20049;-58
2022/01/31 10:56:55;;;;;;;6.72;1.20;;;7.50;65.80;;;;;;5020704;28;20080;-57
2022/01/31 10:59:30;;;;;;;11.05;1.67;;;7.50;71.10;;;;;;5035519;28;20084;-57
2022/01/31 11:01:58;;;;;;;9.60;1.88;;;7.60;65.30;;;;;;5034487;28;20077;-57
2022/01/31 11:04:36;;;;;;;4.47;1.20;;;7.60;69.10;;;;;;5021437;28;20119;-60
2022/01/31 11:07:06;;;;;;;16.40;1.65;;;7.60;64.90;;;;;;5026303;28;20098;-55
2022/01/31 11:09:33;;;;;;;4.00;1.42;;;7.60;66.30;;;;;;5038666;28;20041;-57
2022/01/31 11:12:00;;;;;;;10.70;1.27;;;7.70;65.20;;;;;;5026577;28;20211;-57
2022/01/31 11:14:28;;;;;;;4.82;1.27;;;7.70;63.30;;;;;;5032758;28;20057;-57
2022/01/31 11:16:55;;;;;;;8.18;0.90;;;7.70;60.40;;;;;;5016007;28;20210;-57
2022/01/31 11:19:31;;;;;;;13.40;1.58;;;7.60;56.30;;;;;;5030331;28;20045;-58
2022/01/31 11:22:02;;;;;;;11.82;1.73;;;7.60;60.10;;;;;;5035717;28;20044;-57
2022/01/31 11:24:31;;;;;;;5.45;1.17;;;7.70;60.40;;;;;;5017661;28;20340;-58
2022/01/31 11:27:07;;;;;;;8.48;1.38;;;7.70;65.40;;;;;;5044528;28;20045;-56
2022/01/31 11:29:36;;;;;;;7.68;1.02;;;7.70;60.90;;;;;;5041980;28;20059;-57
2022/01/31 11:32:03;;;;;;;13.75;2.25;;;7.80;64.30;;;;;;5015461;28;20055;-56
2022/01/31 11:34:31;;;;;;;10.05;1.15;;;7.90;61.50;;;;;;5035958;28;20049;-56
2022/01/31 11:36:57;;;;;;;5.93;1.30;;;8.00;59.70;;;;;;5031520;28;20060;-58
2022/01/31 11:39:24;;;;;;;7.90;1.30;;;7.90;63.30;;;;;;5038653;28;20064;-58
2022/01/31 11:41:57;;;;;;;10.95;1.13;;;7.90;58.70;;;;;;5037290;28;20064;-58
2022/01/31 11:44:44;;;;;;;19.83;1.73;;;8.00;63.80;;;;;;5018954;28;20069;-57
2022/01/31 11:47:12;;;;;;;8.77;1.30;;;8.10;60.20;;;;;;5018978;28;20072;-57
2022/01/31 11:49:42;;;;;;;9.38;1.20;;;8.10;60.20;;;;;;5007684;28;20056;-58
2022/01/31 11:52:10;;;;;;;17.85;1.45;;;8.10;59.20;;;;;;5016203;28;20049;-58
2022/01/31 11:54:48;;;;;;;5.43;1.15;;;8.00;64.20;;;;;;5024737;28;20084;-58
2022/01/31 11:57:20;;;;;;;3.40;0.85;;;7.80;61.30;;;;;;5023702;28;20347;-61
2022/01/31 12:00:08;;;;;;;7.47;1.70;;;7.80;60.30;;;;;;5020499;28;20131;-57
2022/01/31 12:02:46;;;;;;;11.18;1.50;;;7.80;61.50;;;;;;5006314;28;20077;-58
2022/01/31 12:05:19;;;;;;;6.50;1.00;;;7.80;61.80;;;;;;5018495;28;20050;-58
2022/01/31 12:07:46;;;;;;;7.22;1.70;;;7.70;64.80;;;;;;5024925;28;20103;-58
2022/01/31 12:10:19;;;;;;;7.22;1.33;;;7.80;65.50;;;;;;5023740;28;20053;-57
2022/01/31 12:24:10;;;;;;;5.20;1.33;;;8.00;61.00;;;;;;5018190;28;20191;-57
2022/01/31 12:26:54;;;;;;;5.50;1.48;;;7.90;60.80;;;;;;5016719;28;20072;-58
2022/01/31 12:29:23;;;;;;;5.10;1.50;;;7.80;60.70;;;;;;5014935;28;20525;-55
2022/01/31 12:31:53;;;;;;;13.50;1.80;;;7.80;63.10;;;;;;5016306;28;20119;-58
2022/01/31 12:34:20;;;;;;;7.25;2.15;;;7.70;61.20;;;;;;5017693;28;20115;-57
2022/01/31 12:36:52;;;;;;;7.05;1.60;;;7.80;63.30;;;;;;5010886;28;20184;-57
2022/01/31 12:39:28;;;;;;;10.07;1.30;;;7.80;66.10;;;;;;5015519;28;20049;-60
2022/01/31 12:42:26;;;;;;;5.82;1.45;;;7.80;61.30;;;;;;5014637;28;20054;-58
2022/01/31 12:44:46;;;;;;;8.70;1.55;;;7.90;65.60;;;;;;5018288;28;20123;-57
2022/01/31 12:47:17;;;;;;;4.95;1.33;;;7.90;57.90;;;;;;5019253;28;20053;-59
2022/01/31 12:49:45;;;;;;;14.98;1.67;;;7.90;61.50;;;;;;5010956;28;20057;-57
2022/01/31 12:52:12;;;;;;;10.60;1.63;;;7.90;64.90;;;;;;5009062;28;20485;-58
2022/01/31 12:54:39;;;;;;;6.40;1.25;;;7.90;60.80;;;;;;5013868;28;20046;-57
2022/01/31 12:57:11;;;;;;;7.85;1.50;;;7.90;60.90;;;;;;5010075;28;20452;-58
2022/01/31 12:59:39;;;;;;;13.18;1.30;;;7.90;60.90;;;;;;5011071;28;20503;-60
2022/01/31 13:02:08;;;;;;;9.77;1.60;;;8.00;61.80;;;;;;5009955;28;20056;-59
2022/01/31 13:04:35;;;;;;;3.75;1.50;;;8.10;62.40;;;;;;5018056;28;20489;-58
2022/01/31 13:07:08;;;;;;;14.70;1.83;;;8.10;63.00;;;;;;5013531;28;20061;-58
2022/01/31 13:09:54;;;;;;;16.85;2.15;;;8.10;63.30;;;;;;5010051;28;20405;-58
2022/01/31 13:12:23;;;;;;;3.28;1.08;;;8.10;62.30;;;;;;5010454;28;20046;-59
2022/01/31 13:14:52;;;;;;;9.43;1.67;;;8.10;57.80;;;;;;5022870;28;20053;-57
2022/01/31 13:17:20;;;;;;;10.98;1.40;;;8.20;60.30;;;;;;5009130;28;20122;-58
2022/01/31 13:19:49;;;;;;;7.05;1.92;;;8.10;58.80;;;;;;5022671;28;20092;-58
2022/01/31 13:22:27;;;;;;;7.32;1.20;;;8.20;58.00;;;;;;5013692;28;20151;-57
2022/01/31 13:24:56;;;;;;;14.32;2.25;;;8.10;57.00;;;;;;5017253;28;20464;-58
2022/01/31 13:27:34;;;;;;;17.48;3.13;;;8.20;56.40;;;;;;5007586;28;20081;-56
2022/01/31 13:30:12;;;;;;;22.92;2.00;;;8.20;55.10;;;;;;5015233;28;20063;-58
2022/01/31 13:32:39;;;;;;;17.70;2.20;;;8.30;59.90;;;;;;5010261;28;20046;-58
2022/01/31 13:35:11;;;;;;;14.73;2.40;;;8.20;60.70;;;;;;5018601;28;20095;-60
2022/01/31 13:37:51;;;;;;;7.18;2.55;;;8.30;56.30;;;;;;5013579;28;20049;-59
2022/01/31 13:40:21;;;;;;;5.20;1.10;;;8.30;61.20;;;;;;5019448;28;20503;-59
2022/01/31 13:43:02;;;;;;;5.28;1.10;;;8.30;57.20;;;;;;5014833;28;20123;-58
2022/01/31 13:45:37;;;;;;;4.35;1.20;;;8.30;53.30;;;;;;5015921;28;20367;-59